METAR-Meldungen aus der Umgebung


Warning: A non-numeric value encountered in /homepages/1/d50633195/htdocs/bad-muskau-wetter/weather28/metar/metarDisplay.php on line 168

Warning: A non-numeric value encountered in /homepages/1/d50633195/htdocs/bad-muskau-wetter/weather28/metar/metarDisplay.php on line 168

Warning: A non-numeric value encountered in /homepages/1/d50633195/htdocs/bad-muskau-wetter/weather28/metar/metarDisplay.php on line 168

Warning: A non-numeric value encountered in /homepages/1/d50633195/htdocs/bad-muskau-wetter/weather28/metar/metarDisplay.php on line 168

Warning: A non-numeric value encountered in /homepages/1/d50633195/htdocs/bad-muskau-wetter/weather28/metar/metarDisplay.php on line 168
   
EDDC - Dresden/Klotzsch, Germany
Entfernung von der Station bis: SW 82 km
Aktualisierung: 21-08-2019 17:20
Klar  
Klar  
   Wind: WNW 7.4 km/h
Wind: WNW 7.4 km/h
Temperatur: 22°C
Taupunkt: 10°C
Luftfeuchte: 47%
Luftdruck: 1028 hPa
Sichtbarkeit: More than 10 km
Bewölkung: Klar
EDDC 211520Z 30004KT CAVOK 22/10 Q1028 NOSIG
EPZG - Zielona Gora, Poland
Entfernung von der Station bis: NO 99 km
Aktualisierung: 21-08-2019 17:30
leicht bewölkt  
leicht bewölkt  
   Wind: Windstille
Wind: Windstille
Temperatur: 23°C
Taupunkt: 11°C
Luftfeuchte: 47%
Luftdruck: 1027 hPa
Bewölkt: leicht bewölkt
Sichtbarkeit: More than 10 km
Bewölkung: leicht bewölkt 4300 ft
EPZG 211530Z 00000KT 9999 FEW043 23/11 Q1027
ETSH - Holzdorf, Germany
Entfernung von der Station bis: WNW 110 km
Aktualisierung: 21-08-2019 17:20
Teilweise bewölkt  
Teilweise bewölkt  
   Wind: Westen 13 km/h
Wind: Westen 13 km/h
Temperatur: 24°C
Taupunkt: 5°C
Luftfeuchte: 29%
Luftdruck: 1027 hPa
Bewölkt: Teilweise bewölkt
Sichtbarkeit: More than 10 km
Bewölkung: Teilweise bewölkt 7000 ft
ETSH 211520Z 28007KT 9999 SCT070 24/05 Q1027 BLU+
EDDB - Berlin/Schonefel, Germany
Entfernung von der Station bis: NW 124 km
Aktualisierung: 21-08-2019 17:50
Klar  
Klar  
   Wind: WSW 13 km/h
Wind: WSW 13 km/h
Temperatur: 23°C
Taupunkt: 7°C
Luftfeuchte: 36%
Luftdruck: 1027 hPa
Sichtbarkeit: More than 10 km
Bewölkung: Klar
EDDB 211550Z 25007KT CAVOK 23/07 Q1027 NOSIG
EDDT - Berlin/Tegel (fa, Germany
Entfernung von der Station bis: NW 149 km
Aktualisierung: 21-08-2019 17:50
Klar  
Klar  
   Wind: NW 9.3 km/h
Wind: NW 9.3 km/h
Temperatur: 23°C
Taupunkt: 6°C
Luftfeuchte: 33%
Luftdruck: 1027 hPa
Sichtbarkeit: More than 10 km
Bewölkung: Klar
EDDT 211550Z 32005KT 260V360 CAVOK 23/06 Q1027 NOSIG
LKVO - Vodochody, Czech Republic
Entfernung von der Station bis: S 149 km
Aktualisierung: 21-08-2019 16:00
Nicht aktuell
Klar  
Klar  
   Wind: Westen 5.6 km/h
Wind: Westen 5.6 km/h
Temperatur: 22°C
Taupunkt: 10°C
Luftfeuchte: 47%
Luftdruck: 1028 hPa
Sichtbarkeit: More than 10 km
Bewölkung: Klar
LKVO 211400Z 28003KT 200V330 CAVOK 22/10 Q1028
EPWR - Wroclaw/Strachow, Poland
Entfernung von der Station bis: OSO 157 km
Aktualisierung: 21-08-2019 17:30
leicht bewölkt  
leicht bewölkt  
   Wind: variiert 3.7 km/h
Wind: variiert 3.7 km/h
Temperatur: 21°C
Taupunkt: 12°C
Luftfeuchte: 57%
Luftdruck: 1028 hPa
Bewölkt: leicht bewölkt
Sichtbarkeit: More than 10 km
Bewölkung: leicht bewölkt 3000 ft
EPWR 211530Z VRB02KT 9999 FEW030 21/12 Q1028
LKKB - Kbely, Czech Republic
Entfernung von der Station bis: S 159 km
Aktualisierung: 21-08-2019 17:00
Klar  
Klar  
   Wind: NNW 5.6 km/h
Wind: NNW 5.6 km/h
Temperatur: 22°C
Taupunkt: 9°C
Luftfeuchte: 44%
Luftdruck: 1028 hPa
Sichtbarkeit: More than 10 km
Bewölkung: Klar
LKKB 211500Z 33003KT 270V030 CAVOK 22/09 Q1028 NOSIG
 

Script entwickelt von  Saratoga-weather.org Angepasst für das Template von  Weerstation Leuven